Dublin, Ireland

10:51 AM IST on August 30, 2014 (GMT +0100)
Artane, Dublin 5 | Change Station
CLOSE
Current Station
Personal Weather Station
Location: Dublin, Dublin City
Elevation: 132 ft
Nearby Weather Stations

Elev 132 ft 53.39 °N, 6.21 °W | Updated 0 second ago

Light Drizzle
Light Drizzle
60.6 °F
Feels Like 60.6 °F
N
7.2
Wind Variable Wind from WSW
Gusts 7.2 mph

Today
High -- | Low -- °F
--% Chance of Precip.
Yesterday
High -- | Low -- °F
Precip. -- in
6:30 AM 8:19 PM
Waxing Crescent, 20% visible
Pressure 29.95 in
Visibility 6.2 miles
Clouds Few 500 ft
Mostly Cloudy 800 ft
Mostly Cloudy 1200 ft
Dew Point 58 °F
Humidity 90%
Rainfall 0.03 in
Snow Depth Not available.
UV 2 out of 12
Pollen Not available.
Air Quality Not available.
Flu Activity Not available.
METAR EIDW 300930Z 26014KT 9999 -DZ FEW005 BKN008 BKN012 14/13 Q1014 TEMPO 5000

More Conditions Fewer Conditions

Pressure 29.95 in
Visibility 6.2 miles
Clouds Few 500 ft
Mostly Cloudy 800 ft
Mostly Cloudy 1200 ft
Dew Point 58 °F
Humidity 90%
Rainfall 0.03 in
Snow Depth Not available.
UV 2 out of 12
Pollen Not available.
Air Quality Not available.
Flu Activity Not available.
METAR EIDW 300930Z 26014KT 9999 -DZ FEW005 BKN008 BKN012 14/13 Q1014 TEMPO 5000

More Conditions Fewer Conditions

10-Day Weather Forecast

Almanac

Astronomy

Aug. 30, 2014 Rise Set
Actual Time 6:30 AM IST 8:19 PM IST
Civil Twilight 5:53 AM IST 8:56 PM IST
Nautical Twilight 5:07 AM IST 9:42 PM IST
Astronomical Twilight 4:14 AM IST 10:34 PM IST
Moon 11:48 AM IST 9:58 PM IST
Length of Visible Light 15h 02m
Length of Day
13h 49m
Tomorrow will be 4m 6s shorter.
Waxing Crescent, 20% of the Moon is Illuminated
Today
Waxing Crescent
Sep 2
First Quarter
Sep 8
Full
Sep 15
Last Quarter
Sep 24
New

Yesterday's Extremes

Country Highs Country Lows

Community

WunderPhotos

Upload Photos

1,748,475 photos uploaded!

Nearby

Snow Depth

Not available.

Earthquake Activity

City Distance Mag. Time & Date
No recent earthquake activity has been reported nearby.
Minimum magnitude displayed is 2.5.

Coastal Water Temperatures

Place Temperature
No Stations Reporting

Nearby Weather Stations